Terminal Aerodrome Forecast
Issued by NWS Flagstaff, AZ

Home | Current Version | Previous Version | Text Only | Print | Product List | Glossary On
Versions: 1 2 3 4 5 6 7 8 9 10 11 12 13 14
000
FTUS45 KFGZ 290539
TAFFLG
TAF
KFLG 290539Z 2906/3006 VRB02KT P6SM SCT100 SCT250
     FM291600 VRB06KT P6SM BKN080
     FM300200 VRB02KT P6SM FEW080 SCT250=

USA.gov is the U.S. government's official web portal to all federal, state and local government web resources and services.